Terminal Aerodrome Forecast
Issued by NWS

Home | Current Version | Previous Version | Text Only | Print | Product List | Glossary On
Versions: 1 2 3 4 5 6 7 8 9 10 11 12 13 14 15 16 17 18 19
169
FTUS46 KSEW 130533
TAFOLM
TAF
KOLM 130533Z 1306/1406 21006KT P6SM SCT030 BKN060
     FM130800 19006KT 5SM -SHRA BR SCT012 BKN020 OVC035
     FM131200 19006KT P6SM VCSH SCT012 BKN020 OVC035
     FM131600 17006KT P6SM SCT025 BKN045
     FM131900 17008KT P6SM -RA OVC040
     FM132300 17008KT 4SM -RA SCT008 OVC015=

USA.gov is the U.S. government's official web portal to all federal, state and local government web resources and services.